sensor_id;sensor_type;location;lat;lon;timestamp;temperature;humidity
29687;DHT22;16599;47.078;15.536;2023-07-02T00:00:00;15.50;99.90
29687;DHT22;16599;47.078;15.536;2023-07-02T00:02:28;15.40;99.90
29687;DHT22;16599;47.078;15.536;2023-07-02T00:04:54;15.40;99.90
29687;DHT22;16599;47.078;15.536;2023-07-02T00:07:22;15.40;99.90
29687;DHT22;16599;47.078;15.536;2023-07-02T00:09:49;15.50;99.90
29687;DHT22;16599;47.078;15.536;2023-07-02T00:12:16;15.40;99.90
29687;DHT22;16599;47.078;15.536;2023-07-02T00:14:43;15.40;99.90
29687;DHT22;16599;47.078;15.536;2023-07-02T00:17:10;15.30;99.90
29687;DHT22;16599;47.078;15.536;2023-07-02T00:19:40;15.30;99.90
29687;DHT22;16599;47.078;15.536;2023-07-02T00:22:09;15.40;99.90
29687;DHT22;16599;47.078;15.536;2023-07-02T00:24:36;15.50;99.90
29687;DHT22;16599;47.078;15.536;2023-07-02T00:27:04;15.30;99.90
29687;DHT22;16599;47.078;15.536;2023-07-02T00:29:31;15.30;99.90
29687;DHT22;16599;47.078;15.536;2023-07-02T00:31:58;15.20;99.90
29687;DHT22;16599;47.078;15.536;2023-07-02T00:34:24;15.40;99.90
29687;DHT22;16599;47.078;15.536;2023-07-02T00:36:52;15.30;99.90
29687;DHT22;16599;47.078;15.536;2023-07-02T00:39:19;15.20;99.90
29687;DHT22;16599;47.078;15.536;2023-07-02T00:41:46;15.30;99.90
29687;DHT22;16599;47.078;15.536;2023-07-02T00:44:13;15.30;99.90
29687;DHT22;16599;47.078;15.536;2023-07-02T00:46:40;15.30;99.90
29687;DHT22;16599;47.078;15.536;2023-07-02T00:49:08;15.20;99.90
29687;DHT22;16599;47.078;15.536;2023-07-02T00:51:36;15.10;99.90
29687;DHT22;16599;47.078;15.536;2023-07-02T00:54:04;15.00;99.90
29687;DHT22;16599;47.078;15.536;2023-07-02T00:56:31;15.20;99.90
29687;DHT22;16599;47.078;15.536;2023-07-02T00:58:58;15.10;99.90
29687;DHT22;16599;47.078;15.536;2023-07-02T01:01:27;15.00;99.90
29687;DHT22;16599;47.078;15.536;2023-07-02T01:04:02;15.10;99.90
29687;DHT22;16599;47.078;15.536;2023-07-02T01:06:34;15.30;99.90
29687;DHT22;16599;47.078;15.536;2023-07-02T01:09:05;15.30;99.90
29687;DHT22;16599;47.078;15.536;2023-07-02T01:11:42;15.20;99.90
29687;DHT22;16599;47.078;15.536;2023-07-02T01:14:15;15.30;99.90
29687;DHT22;16599;47.078;15.536;2023-07-02T01:16:44;15.20;99.90
29687;DHT22;16599;47.078;15.536;2023-07-02T01:19:21;15.20;99.90
29687;DHT22;16599;47.078;15.536;2023-07-02T01:21:49;15.30;99.90
29687;DHT22;16599;47.078;15.536;2023-07-02T01:24:17;15.10;99.90
29687;DHT22;16599;47.078;15.536;2023-07-02T01:26:44;15.00;99.90
29687;DHT22;16599;47.078;15.536;2023-07-02T01:29:17;15.10;99.90
29687;DHT22;16599;47.078;15.536;2023-07-02T01:31:44;15.00;99.90
29687;DHT22;16599;47.078;15.536;2023-07-02T01:34:12;15.10;99.90
29687;DHT22;16599;47.078;15.536;2023-07-02T01:36:39;15.20;99.90
29687;DHT22;16599;47.078;15.536;2023-07-02T01:39:06;15.30;99.90
29687;DHT22;16599;47.078;15.536;2023-07-02T01:41:53;15.10;99.90
29687;DHT22;16599;47.078;15.536;2023-07-02T01:44:21;15.00;99.90
29687;DHT22;16599;47.078;15.536;2023-07-02T01:46:48;15.00;99.90
29687;DHT22;16599;47.078;15.536;2023-07-02T01:49:17;15.10;99.90
29687;DHT22;16599;47.078;15.536;2023-07-02T01:51:55;15.00;99.90
29687;DHT22;16599;47.078;15.536;2023-07-02T01:54:25;15.00;99.90
29687;DHT22;16599;47.078;15.536;2023-07-02T01:56:54;15.00;99.90
29687;DHT22;16599;47.078;15.536;2023-07-02T01:59:21;15.00;99.90
29687;DHT22;16599;47.078;15.536;2023-07-02T02:01:48;15.00;99.90
29687;DHT22;16599;47.078;15.536;2023-07-02T02:04:15;14.80;99.90
29687;DHT22;16599;47.078;15.536;2023-07-02T02:06:43;14.80;99.90
29687;DHT22;16599;47.078;15.536;2023-07-02T02:09:10;14.50;99.90
29687;DHT22;16599;47.078;15.536;2023-07-02T02:11:43;14.60;99.90
29687;DHT22;16599;47.078;15.536;2023-07-02T02:14:10;14.40;99.90
29687;DHT22;16599;47.078;15.536;2023-07-02T02:16:37;14.60;99.90
29687;DHT22;16599;47.078;15.536;2023-07-02T02:19:04;14.30;99.90
29687;DHT22;16599;47.078;15.536;2023-07-02T02:21:31;14.20;99.90
29687;DHT22;16599;47.078;15.536;2023-07-02T02:23:58;14.40;99.90
29687;DHT22;16599;47.078;15.536;2023-07-02T02:26:25;14.30;99.90
29687;DHT22;16599;47.078;15.536;2023-07-02T02:28:52;14.40;99.90
29687;DHT22;16599;47.078;15.536;2023-07-02T02:31:19;14.50;99.90
29687;DHT22;16599;47.078;15.536;2023-07-02T02:33:46;14.30;99.90
29687;DHT22;16599;47.078;15.536;2023-07-02T02:36:13;14.20;99.90
29687;DHT22;16599;47.078;15.536;2023-07-02T02:38:40;14.10;99.90
29687;DHT22;16599;47.078;15.536;2023-07-02T02:41:07;14.20;99.90
29687;DHT22;16599;47.078;15.536;2023-07-02T02:43:35;13.90;99.90
29687;DHT22;16599;47.078;15.536;2023-07-02T02:46:02;13.80;99.90
29687;DHT22;16599;47.078;15.536;2023-07-02T02:48:29;14.00;99.90
29687;DHT22;16599;47.078;15.536;2023-07-02T02:50:55;14.00;99.90
29687;DHT22;16599;47.078;15.536;2023-07-02T02:53:22;14.20;99.90
29687;DHT22;16599;47.078;15.536;2023-07-02T02:55:49;14.30;99.90
29687;DHT22;16599;47.078;15.536;2023-07-02T02:58:16;14.30;99.90
29687;DHT22;16599;47.078;15.536;2023-07-02T03:00:43;13.80;99.90
29687;DHT22;16599;47.078;15.536;2023-07-02T03:03:13;13.80;99.90
29687;DHT22;16599;47.078;15.536;2023-07-02T03:05:40;13.80;99.90
29687;DHT22;16599;47.078;15.536;2023-07-02T03:08:07;13.90;99.90
29687;DHT22;16599;47.078;15.536;2023-07-02T03:10:34;13.70;99.90
29687;DHT22;16599;47.078;15.536;2023-07-02T03:13:01;13.40;99.90
29687;DHT22;16599;47.078;15.536;2023-07-02T03:15:29;13.60;99.90
29687;DHT22;16599;47.078;15.536;2023-07-02T03:17:56;13.70;99.90
29687;DHT22;16599;47.078;15.536;2023-07-02T03:20:23;13.80;99.90
29687;DHT22;16599;47.078;15.536;2023-07-02T03:22:50;13.50;99.90
29687;DHT22;16599;47.078;15.536;2023-07-02T03:25:17;13.40;99.90
29687;DHT22;16599;47.078;15.536;2023-07-02T03:27:44;13.40;99.90
29687;DHT22;16599;47.078;15.536;2023-07-02T03:30:11;13.40;99.90
29687;DHT22;16599;47.078;15.536;2023-07-02T03:32:38;13.60;99.90
29687;DHT22;16599;47.078;15.536;2023-07-02T03:35:05;13.60;99.90
29687;DHT22;16599;47.078;15.536;2023-07-02T03:37:32;13.60;99.90
29687;DHT22;16599;47.078;15.536;2023-07-02T03:40:01;13.80;99.90
29687;DHT22;16599;47.078;15.536;2023-07-02T03:42:29;13.60;99.90
29687;DHT22;16599;47.078;15.536;2023-07-02T03:44:56;13.70;99.90
29687;DHT22;16599;47.078;15.536;2023-07-02T03:47:23;13.80;99.90
29687;DHT22;16599;47.078;15.536;2023-07-02T03:49:49;13.90;99.90
29687;DHT22;16599;47.078;15.536;2023-07-02T03:52:17;14.10;99.90
29687;DHT22;16599;47.078;15.536;2023-07-02T03:54:44;14.10;99.90
29687;DHT22;16599;47.078;15.536;2023-07-02T03:57:11;13.90;99.90
29687;DHT22;16599;47.078;15.536;2023-07-02T03:59:38;14.00;99.90
29687;DHT22;16599;47.078;15.536;2023-07-02T04:02:05;14.10;99.90
29687;DHT22;16599;47.078;15.536;2023-07-02T04:04:32;14.30;99.90
29687;DHT22;16599;47.078;15.536;2023-07-02T04:06:59;14.20;99.90
29687;DHT22;16599;47.078;15.536;2023-07-02T04:09:26;14.30;99.90
29687;DHT22;16599;47.078;15.536;2023-07-02T04:11:53;14.40;99.90
29687;DHT22;16599;47.078;15.536;2023-07-02T04:14:20;14.50;99.90
29687;DHT22;16599;47.078;15.536;2023-07-02T04:16:46;14.50;99.90
29687;DHT22;16599;47.078;15.536;2023-07-02T04:19:13;14.50;99.90
29687;DHT22;16599;47.078;15.536;2023-07-02T04:21:40;14.70;99.90
29687;DHT22;16599;47.078;15.536;2023-07-02T04:24:07;14.80;99.90
29687;DHT22;16599;47.078;15.536;2023-07-02T04:26:35;14.80;99.90
29687;DHT22;16599;47.078;15.536;2023-07-02T04:29:23;14.80;99.90
29687;DHT22;16599;47.078;15.536;2023-07-02T04:31:50;14.90;99.90
29687;DHT22;16599;47.078;15.536;2023-07-02T04:34:17;15.00;99.90
29687;DHT22;16599;47.078;15.536;2023-07-02T04:36:43;15.00;99.90
29687;DHT22;16599;47.078;15.536;2023-07-02T04:39:10;15.00;99.90
29687;DHT22;16599;47.078;15.536;2023-07-02T04:41:37;15.00;99.90
29687;DHT22;16599;47.078;15.536;2023-07-02T04:44:04;15.10;99.90
29687;DHT22;16599;47.078;15.536;2023-07-02T04:46:31;15.10;99.90
29687;DHT22;16599;47.078;15.536;2023-07-02T04:48:58;15.20;99.90
29687;DHT22;16599;47.078;15.536;2023-07-02T04:51:25;15.20;99.90
29687;DHT22;16599;47.078;15.536;2023-07-02T04:53:52;15.30;99.90
29687;DHT22;16599;47.078;15.536;2023-07-02T04:56:19;15.20;99.90
29687;DHT22;16599;47.078;15.536;2023-07-02T04:58:46;15.20;99.90
29687;DHT22;16599;47.078;15.536;2023-07-02T05:01:13;15.20;99.90
29687;DHT22;16599;47.078;15.536;2023-07-02T05:03:40;15.20;99.90
29687;DHT22;16599;47.078;15.536;2023-07-02T05:06:07;15.30;99.90
29687;DHT22;16599;47.078;15.536;2023-07-02T05:08:34;15.40;99.90
29687;DHT22;16599;47.078;15.536;2023-07-02T05:11:01;15.30;99.90
29687;DHT22;16599;47.078;15.536;2023-07-02T05:13:28;15.40;99.90
29687;DHT22;16599;47.078;15.536;2023-07-02T05:15:54;15.60;99.90
29687;DHT22;16599;47.078;15.536;2023-07-02T05:18:21;15.70;99.90
29687;DHT22;16599;47.078;15.536;2023-07-02T05:20:48;15.70;99.90
29687;DHT22;16599;47.078;15.536;2023-07-02T05:23:15;15.80;99.90
29687;DHT22;16599;47.078;15.536;2023-07-02T05:25:42;15.80;99.90
29687;DHT22;16599;47.078;15.536;2023-07-02T05:28:09;15.90;99.90
29687;DHT22;16599;47.078;15.536;2023-07-02T05:30:36;15.90;99.90
29687;DHT22;16599;47.078;15.536;2023-07-02T05:33:03;15.90;99.90
29687;DHT22;16599;47.078;15.536;2023-07-02T05:35:30;16.00;99.90
29687;DHT22;16599;47.078;15.536;2023-07-02T05:37:57;16.00;99.90
29687;DHT22;16599;47.078;15.536;2023-07-02T05:40:24;16.00;99.90
29687;DHT22;16599;47.078;15.536;2023-07-02T05:42:51;16.10;99.90
29687;DHT22;16599;47.078;15.536;2023-07-02T05:45:19;16.10;99.90
29687;DHT22;16599;47.078;15.536;2023-07-02T05:47:45;16.20;99.90
29687;DHT22;16599;47.078;15.536;2023-07-02T05:50:13;16.30;99.90
29687;DHT22;16599;47.078;15.536;2023-07-02T05:52:40;16.40;99.90
29687;DHT22;16599;47.078;15.536;2023-07-02T05:55:10;16.40;99.90
29687;DHT22;16599;47.078;15.536;2023-07-02T05:57:38;16.50;99.90
29687;DHT22;16599;47.078;15.536;2023-07-02T06:00:05;16.60;99.90
29687;DHT22;16599;47.078;15.536;2023-07-02T06:02:33;16.60;99.90
29687;DHT22;16599;47.078;15.536;2023-07-02T06:05:00;16.70;99.90
29687;DHT22;16599;47.078;15.536;2023-07-02T06:07:28;16.70;99.90
29687;DHT22;16599;47.078;15.536;2023-07-02T06:09:55;16.70;99.90
29687;DHT22;16599;47.078;15.536;2023-07-02T06:12:22;16.70;99.90
29687;DHT22;16599;47.078;15.536;2023-07-02T06:14:49;16.80;99.90
29687;DHT22;16599;47.078;15.536;2023-07-02T06:17:16;16.70;99.90
29687;DHT22;16599;47.078;15.536;2023-07-02T06:19:44;16.80;99.90
29687;DHT22;16599;47.078;15.536;2023-07-02T06:22:11;16.90;99.90
29687;DHT22;16599;47.078;15.536;2023-07-02T06:24:38;17.00;99.90
29687;DHT22;16599;47.078;15.536;2023-07-02T06:27:05;17.10;99.90
29687;DHT22;16599;47.078;15.536;2023-07-02T06:29:32;17.20;99.90
29687;DHT22;16599;47.078;15.536;2023-07-02T06:31:59;17.20;99.90
29687;DHT22;16599;47.078;15.536;2023-07-02T06:34:26;17.30;99.90
29687;DHT22;16599;47.078;15.536;2023-07-02T06:36:53;17.40;99.90
29687;DHT22;16599;47.078;15.536;2023-07-02T06:39:20;17.40;99.90
29687;DHT22;16599;47.078;15.536;2023-07-02T06:41:47;17.40;99.90
29687;DHT22;16599;47.078;15.536;2023-07-02T06:44:14;17.40;99.90
29687;DHT22;16599;47.078;15.536;2023-07-02T06:46:41;17.50;99.90
29687;DHT22;16599;47.078;15.536;2023-07-02T06:49:09;17.60;99.90
29687;DHT22;16599;47.078;15.536;2023-07-02T06:51:36;17.60;99.90
29687;DHT22;16599;47.078;15.536;2023-07-02T06:54:04;17.70;99.90
29687;DHT22;16599;47.078;15.536;2023-07-02T06:56:31;17.80;99.90
29687;DHT22;16599;47.078;15.536;2023-07-02T06:59:01;17.80;99.90
29687;DHT22;16599;47.078;15.536;2023-07-02T07:01:28;17.90;99.90
29687;DHT22;16599;47.078;15.536;2023-07-02T07:03:55;18.10;99.90
29687;DHT22;16599;47.078;15.536;2023-07-02T07:06:22;18.20;99.90
29687;DHT22;16599;47.078;15.536;2023-07-02T07:08:49;18.30;99.90
29687;DHT22;16599;47.078;15.536;2023-07-02T07:11:16;18.50;99.90
29687;DHT22;16599;47.078;15.536;2023-07-02T07:13:43;18.70;99.90
29687;DHT22;16599;47.078;15.536;2023-07-02T07:16:11;19.00;99.90
29687;DHT22;16599;47.078;15.536;2023-07-02T07:18:38;19.20;99.90
29687;DHT22;16599;47.078;15.536;2023-07-02T07:21:05;19.30;99.90
29687;DHT22;16599;47.078;15.536;2023-07-02T07:23:32;19.60;99.90
29687;DHT22;16599;47.078;15.536;2023-07-02T07:25:59;19.80;99.90
29687;DHT22;16599;47.078;15.536;2023-07-02T07:28:26;19.90;99.90
29687;DHT22;16599;47.078;15.536;2023-07-02T07:30:53;20.10;99.90
29687;DHT22;16599;47.078;15.536;2023-07-02T07:33:20;20.40;99.90
29687;DHT22;16599;47.078;15.536;2023-07-02T07:35:48;20.70;99.90
29687;DHT22;16599;47.078;15.536;2023-07-02T07:38:15;20.90;99.90
29687;DHT22;16599;47.078;15.536;2023-07-02T07:40:43;21.10;99.90
29687;DHT22;16599;47.078;15.536;2023-07-02T07:43:10;21.10;99.90
29687;DHT22;16599;47.078;15.536;2023-07-02T07:45:40;21.30;99.90
29687;DHT22;16599;47.078;15.536;2023-07-02T07:48:08;21.60;99.90
29687;DHT22;16599;47.078;15.536;2023-07-02T07:50:36;22.00;99.90
29687;DHT22;16599;47.078;15.536;2023-07-02T07:53:03;22.10;96.40
29687;DHT22;16599;47.078;15.536;2023-07-02T07:55:30;22.00;96.20
29687;DHT22;16599;47.078;15.536;2023-07-02T07:57:57;22.20;93.90
29687;DHT22;16599;47.078;15.536;2023-07-02T08:04:15;22.20;93.50
29687;DHT22;16599;47.078;15.536;2023-07-02T08:10:35;21.80;93.70
29687;DHT22;16599;47.078;15.536;2023-07-02T08:13:02;21.90;96.40
29687;DHT22;16599;47.078;15.536;2023-07-02T08:15:29;21.90;95.50
29687;DHT22;16599;47.078;15.536;2023-07-02T08:17:59;21.90;95.80
29687;DHT22;16599;47.078;15.536;2023-07-02T08:20:27;21.90;93.10
29687;DHT22;16599;47.078;15.536;2023-07-02T08:22:54;21.80;93.00
29687;DHT22;16599;47.078;15.536;2023-07-02T08:29:09;21.90;90.00
29687;DHT22;16599;47.078;15.536;2023-07-02T08:31:36;22.10;92.40
29687;DHT22;16599;47.078;15.536;2023-07-02T08:37:19;21.80;85.40
29687;DHT22;16599;47.078;15.536;2023-07-02T08:39:50;21.80;88.00
29687;DHT22;16599;47.078;15.536;2023-07-02T08:42:47;21.80;89.20
29687;DHT22;16599;47.078;15.536;2023-07-02T08:49:15;22.10;89.00
29687;DHT22;16599;47.078;15.536;2023-07-02T08:55:29;23.00;91.00
29687;DHT22;16599;47.078;15.536;2023-07-02T08:59:07;23.10;84.80
29687;DHT22;16599;47.078;15.536;2023-07-02T09:06:01;23.30;86.80
29687;DHT22;16599;47.078;15.536;2023-07-02T09:19:52;23.00;82.50
29687;DHT22;16599;47.078;15.536;2023-07-02T09:33:16;24.30;75.50
29687;DHT22;16599;47.078;15.536;2023-07-02T09:39:26;24.20;77.40
29687;DHT22;16599;47.078;15.536;2023-07-02T09:46:42;23.60;77.10
29687;DHT22;16599;47.078;15.536;2023-07-02T09:49:14;23.30;78.10
29687;DHT22;16599;47.078;15.536;2023-07-02T09:52:05;23.30;80.50
29687;DHT22;16599;47.078;15.536;2023-07-02T09:58:18;23.40;79.10
29687;DHT22;16599;47.078;15.536;2023-07-02T10:00:45;23.50;82.60
29687;DHT22;16599;47.078;15.536;2023-07-02T10:03:13;23.80;82.50
29687;DHT22;16599;47.078;15.536;2023-07-02T10:05:40;23.90;80.40
29687;DHT22;16599;47.078;15.536;2023-07-02T10:08:15;23.80;79.70
29687;DHT22;16599;47.078;15.536;2023-07-02T10:10:44;23.80;83.20
29687;DHT22;16599;47.078;15.536;2023-07-02T10:13:12;23.80;83.00
29687;DHT22;16599;47.078;15.536;2023-07-02T10:15:39;23.90;82.20
29687;DHT22;16599;47.078;15.536;2023-07-02T10:18:06;23.90;80.10
29687;DHT22;16599;47.078;15.536;2023-07-02T10:20:40;23.90;80.60
29687;DHT22;16599;47.078;15.536;2023-07-02T10:23:09;23.90;83.10
29687;DHT22;16599;47.078;15.536;2023-07-02T10:25:37;23.90;82.40
29687;DHT22;16599;47.078;15.536;2023-07-02T10:28:18;23.80;77.70
29687;DHT22;16599;47.078;15.536;2023-07-02T10:30:49;23.90;80.20
29687;DHT22;16599;47.078;15.536;2023-07-02T10:33:17;23.90;77.80
29687;DHT22;16599;47.078;15.536;2023-07-02T10:35:49;23.60;79.30
29687;DHT22;16599;47.078;15.536;2023-07-02T10:38:23;23.70;82.90
29687;DHT22;16599;47.078;15.536;2023-07-02T10:40:58;23.90;82.40
29687;DHT22;16599;47.078;15.536;2023-07-02T10:43:27;24.00;80.40
29687;DHT22;16599;47.078;15.536;2023-07-02T10:45:57;24.10;81.80
29687;DHT22;16599;47.078;15.536;2023-07-02T10:48:28;24.00;80.50
29687;DHT22;16599;47.078;15.536;2023-07-02T10:50:55;23.80;80.70
29687;DHT22;16599;47.078;15.536;2023-07-02T10:53:23;23.90;80.50
29687;DHT22;16599;47.078;15.536;2023-07-02T10:55:57;23.90;82.70
29687;DHT22;16599;47.078;15.536;2023-07-02T10:58:25;23.50;81.90
29687;DHT22;16599;47.078;15.536;2023-07-02T11:00:52;23.40;81.50
29687;DHT22;16599;47.078;15.536;2023-07-02T11:03:21;23.60;80.80
29687;DHT22;16599;47.078;15.536;2023-07-02T11:05:49;23.60;81.20
29687;DHT22;16599;47.078;15.536;2023-07-02T11:08:37;23.50;82.40
29687;DHT22;16599;47.078;15.536;2023-07-02T11:11:06;23.50;81.20
29687;DHT22;16599;47.078;15.536;2023-07-02T11:13:33;23.50;81.60
29687;DHT22;16599;47.078;15.536;2023-07-02T11:16:00;23.70;83.80
29687;DHT22;16599;47.078;15.536;2023-07-02T11:18:30;23.70;81.10
29687;DHT22;16599;47.078;15.536;2023-07-02T11:21:09;23.50;81.20
29687;DHT22;16599;47.078;15.536;2023-07-02T11:23:36;23.50;82.20
29687;DHT22;16599;47.078;15.536;2023-07-02T11:26:03;23.50;80.90
29687;DHT22;16599;47.078;15.536;2023-07-02T11:28:31;23.40;79.80
29687;DHT22;16599;47.078;15.536;2023-07-02T11:30:59;23.40;84.10
29687;DHT22;16599;47.078;15.536;2023-07-02T11:33:37;23.30;83.70
29687;DHT22;16599;47.078;15.536;2023-07-02T11:36:08;23.30;84.70
29687;DHT22;16599;47.078;15.536;2023-07-02T11:38:46;23.50;85.30
29687;DHT22;16599;47.078;15.536;2023-07-02T11:41:13;23.50;86.90
29687;DHT22;16599;47.078;15.536;2023-07-02T11:43:40;23.70;86.10
29687;DHT22;16599;47.078;15.536;2023-07-02T11:46:07;24.10;83.00
29687;DHT22;16599;47.078;15.536;2023-07-02T11:48:34;24.00;84.00
29687;DHT22;16599;47.078;15.536;2023-07-02T11:51:01;23.90;81.40
29687;DHT22;16599;47.078;15.536;2023-07-02T11:53:28;23.70;82.30
29687;DHT22;16599;47.078;15.536;2023-07-02T11:55:55;23.50;83.50
29687;DHT22;16599;47.078;15.536;2023-07-02T11:58:22;23.40;84.60
29687;DHT22;16599;47.078;15.536;2023-07-02T12:00:49;23.20;84.10
29687;DHT22;16599;47.078;15.536;2023-07-02T12:03:16;23.70;84.40
29687;DHT22;16599;47.078;15.536;2023-07-02T12:05:43;24.00;81.60
29687;DHT22;16599;47.078;15.536;2023-07-02T12:08:10;24.10;84.40
29687;DHT22;16599;47.078;15.536;2023-07-02T12:10:36;23.90;82.20
29687;DHT22;16599;47.078;15.536;2023-07-02T12:13:04;24.00;78.10
29687;DHT22;16599;47.078;15.536;2023-07-02T12:15:31;24.10;82.40
29687;DHT22;16599;47.078;15.536;2023-07-02T12:17:58;24.00;79.80
29687;DHT22;16599;47.078;15.536;2023-07-02T12:20:25;23.70;83.70
29687;DHT22;16599;47.078;15.536;2023-07-02T12:22:52;23.50;84.60
29687;DHT22;16599;47.078;15.536;2023-07-02T12:25:51;23.20;88.80
29687;DHT22;16599;47.078;15.536;2023-07-02T12:28:18;22.80;92.20
29687;DHT22;16599;47.078;15.536;2023-07-02T12:30:45;22.50;92.40
29687;DHT22;16599;47.078;15.536;2023-07-02T12:33:12;22.30;93.10
29687;DHT22;16599;47.078;15.536;2023-07-02T12:35:39;22.20;94.30
29687;DHT22;16599;47.078;15.536;2023-07-02T12:38:06;22.10;94.00
29687;DHT22;16599;47.078;15.536;2023-07-02T12:44:16;22.40;94.50
29687;DHT22;16599;47.078;15.536;2023-07-02T12:50:04;22.80;95.20
29687;DHT22;16599;47.078;15.536;2023-07-02T12:56:23;23.10;95.70
29687;DHT22;16599;47.078;15.536;2023-07-02T12:58:50;23.10;96.20
29687;DHT22;16599;47.078;15.536;2023-07-02T13:01:18;23.10;95.80
29687;DHT22;16599;47.078;15.536;2023-07-02T13:03:45;23.20;95.60
29687;DHT22;16599;47.078;15.536;2023-07-02T13:06:14;23.20;95.80
29687;DHT22;16599;47.078;15.536;2023-07-02T13:08:41;23.30;96.50
29687;DHT22;16599;47.078;15.536;2023-07-02T13:11:08;23.20;93.40
29687;DHT22;16599;47.078;15.536;2023-07-02T13:13:35;23.10;94.80
29687;DHT22;16599;47.078;15.536;2023-07-02T13:16:05;23.20;96.30
29687;DHT22;16599;47.078;15.536;2023-07-02T13:18:32;23.30;94.70
29687;DHT22;16599;47.078;15.536;2023-07-02T13:20:59;23.20;94.30
29687;DHT22;16599;47.078;15.536;2023-07-02T13:23:26;23.40;94.30
29687;DHT22;16599;47.078;15.536;2023-07-02T13:25:53;23.30;92.40
29687;DHT22;16599;47.078;15.536;2023-07-02T13:28:20;23.40;93.90
29687;DHT22;16599;47.078;15.536;2023-07-02T13:30:48;23.50;93.30
29687;DHT22;16599;47.078;15.536;2023-07-02T13:33:15;23.90;90.00
29687;DHT22;16599;47.078;15.536;2023-07-02T13:35:42;24.20;84.60
29687;DHT22;16599;47.078;15.536;2023-07-02T13:38:10;24.50;83.90
29687;DHT22;16599;47.078;15.536;2023-07-02T13:40:37;24.50;82.30
29687;DHT22;16599;47.078;15.536;2023-07-02T13:43:04;24.80;83.70
29687;DHT22;16599;47.078;15.536;2023-07-02T13:45:31;25.00;80.40
29687;DHT22;16599;47.078;15.536;2023-07-02T13:47:58;24.90;80.60
29687;DHT22;16599;47.078;15.536;2023-07-02T13:50:25;25.00;83.60
29687;DHT22;16599;47.078;15.536;2023-07-02T13:52:52;24.90;78.90
29687;DHT22;16599;47.078;15.536;2023-07-02T13:55:19;24.70;79.40
29687;DHT22;16599;47.078;15.536;2023-07-02T13:57:47;24.60;79.50
29687;DHT22;16599;47.078;15.536;2023-07-02T14:00:14;24.60;81.20
29687;DHT22;16599;47.078;15.536;2023-07-02T14:02:41;24.50;83.70
29687;DHT22;16599;47.078;15.536;2023-07-02T14:05:08;24.60;85.20
29687;DHT22;16599;47.078;15.536;2023-07-02T14:07:35;24.70;84.60
29687;DHT22;16599;47.078;15.536;2023-07-02T14:10:03;24.90;83.00
29687;DHT22;16599;47.078;15.536;2023-07-02T14:12:30;24.90;82.20
29687;DHT22;16599;47.078;15.536;2023-07-02T14:14:57;24.80;79.00
29687;DHT22;16599;47.078;15.536;2023-07-02T14:17:24;24.70;80.80
29687;DHT22;16599;47.078;15.536;2023-07-02T14:19:52;24.60;83.30
29687;DHT22;16599;47.078;15.536;2023-07-02T14:22:19;24.70;86.20
29687;DHT22;16599;47.078;15.536;2023-07-02T14:24:46;24.60;82.60
29687;DHT22;16599;47.078;15.536;2023-07-02T14:27:13;24.50;81.70
29687;DHT22;16599;47.078;15.536;2023-07-02T14:29:40;24.40;82.00
29687;DHT22;16599;47.078;15.536;2023-07-02T14:32:07;24.40;84.30
29687;DHT22;16599;47.078;15.536;2023-07-02T14:34:34;24.30;81.70
29687;DHT22;16599;47.078;15.536;2023-07-02T14:37:02;24.50;83.90
29687;DHT22;16599;47.078;15.536;2023-07-02T14:39:30;24.50;81.00
29687;DHT22;16599;47.078;15.536;2023-07-02T14:41:57;24.70;80.10
29687;DHT22;16599;47.078;15.536;2023-07-02T14:44:23;24.70;79.10
29687;DHT22;16599;47.078;15.536;2023-07-02T14:46:50;24.70;79.80
29687;DHT22;16599;47.078;15.536;2023-07-02T14:49:18;24.80;84.20
29687;DHT22;16599;47.078;15.536;2023-07-02T14:51:45;24.90;79.70
29687;DHT22;16599;47.078;15.536;2023-07-02T14:54:23;25.30;80.40
29687;DHT22;16599;47.078;15.536;2023-07-02T14:56:50;25.50;79.80
29687;DHT22;16599;47.078;15.536;2023-07-02T14:59:21;25.30;76.40
29687;DHT22;16599;47.078;15.536;2023-07-02T15:01:48;25.20;83.00
29687;DHT22;16599;47.078;15.536;2023-07-02T15:04:15;25.00;80.90
29687;DHT22;16599;47.078;15.536;2023-07-02T15:06:42;24.90;82.20
29687;DHT22;16599;47.078;15.536;2023-07-02T15:09:09;24.80;85.50
29687;DHT22;16599;47.078;15.536;2023-07-02T15:11:36;24.80;85.00
29687;DHT22;16599;47.078;15.536;2023-07-02T15:14:03;24.70;85.60
29687;DHT22;16599;47.078;15.536;2023-07-02T15:16:30;24.70;86.40
29687;DHT22;16599;47.078;15.536;2023-07-02T15:18:56;24.70;86.80
29687;DHT22;16599;47.078;15.536;2023-07-02T15:21:23;24.70;87.80
29687;DHT22;16599;47.078;15.536;2023-07-02T15:23:51;24.50;89.20
29687;DHT22;16599;47.078;15.536;2023-07-02T15:26:18;24.50;89.00
29687;DHT22;16599;47.078;15.536;2023-07-02T15:28:45;24.50;88.90
29687;DHT22;16599;47.078;15.536;2023-07-02T15:31:12;24.50;88.40
29687;DHT22;16599;47.078;15.536;2023-07-02T15:33:39;24.40;89.70
29687;DHT22;16599;47.078;15.536;2023-07-02T15:36:07;24.40;90.30
29687;DHT22;16599;47.078;15.536;2023-07-02T15:38:36;24.50;90.00
29687;DHT22;16599;47.078;15.536;2023-07-02T15:41:12;24.50;89.00
29687;DHT22;16599;47.078;15.536;2023-07-02T15:43:41;24.50;89.00
29687;DHT22;16599;47.078;15.536;2023-07-02T15:46:09;24.50;90.40
29687;DHT22;16599;47.078;15.536;2023-07-02T15:48:37;24.10;85.80
29687;DHT22;16599;47.078;15.536;2023-07-02T15:51:04;24.10;90.20
29687;DHT22;16599;47.078;15.536;2023-07-02T15:53:33;24.00;91.10
29687;DHT22;16599;47.078;15.536;2023-07-02T15:56:00;24.10;90.40
29687;DHT22;16599;47.078;15.536;2023-07-02T15:58:30;24.10;91.40
29687;DHT22;16599;47.078;15.536;2023-07-02T16:01:09;24.10;92.30
29687;DHT22;16599;47.078;15.536;2023-07-02T16:03:36;24.00;91.40
29687;DHT22;16599;47.078;15.536;2023-07-02T16:06:03;23.90;91.50
29687;DHT22;16599;47.078;15.536;2023-07-02T16:08:31;23.90;91.80
29687;DHT22;16599;47.078;15.536;2023-07-02T16:10:58;23.90;91.50
29687;DHT22;16599;47.078;15.536;2023-07-02T16:13:26;24.00;91.70
29687;DHT22;16599;47.078;15.536;2023-07-02T16:19:27;23.90;92.80
29687;DHT22;16599;47.078;15.536;2023-07-02T16:21:56;23.90;93.10
29687;DHT22;16599;47.078;15.536;2023-07-02T16:24:27;24.00;92.60
29687;DHT22;16599;47.078;15.536;2023-07-02T16:26:54;24.00;92.40
29687;DHT22;16599;47.078;15.536;2023-07-02T16:29:24;24.00;92.40
29687;DHT22;16599;47.078;15.536;2023-07-02T16:31:56;24.10;92.20
29687;DHT22;16599;47.078;15.536;2023-07-02T16:34:24;24.10;91.80
29687;DHT22;16599;47.078;15.536;2023-07-02T16:36:52;24.00;92.20